Main page
Satellite images 10-day forecastsClimateMarine weather Cyclones Lightning AirportsFAQ Newsletter About
Weather : Europe Africa North America South America Asia Australia-Oceania Others
Languages Contact

Milan, Italy

Malpensa Airport

latitude: 45-37N, longitude: 008-44E, elevation: 234 m


METAR: LIMC 031950Z VRB02KT CAVOK 05/00 Q1023 NOSIG
TAF: LIMC 031700Z 0318/0424 VRB05KT CAVOK BECMG 0412/0415 36010KT TEMPO 0416/04124 4000 DZ BKN014

Time: 21:15 (20:15 UTC)

Current weather observation

The report was made 25 minutes ago, at 19:50 UTC
Wind 2 kt from variable directions
Temperature 5°C
Humidity 70%
Pressure 1023 hPa
Visibility 10 km or more
no clouds below 1500 m and no cumulonimbus

Change units

Forecast

The report was made 3 hours and 15 minutes ago, at 17:00 UTC
Forecast valid from 03 at 18 UTC to 04 at 24 UTC
Wind 5 kt from variable directions
Visibility 10 km or more
no clouds below 1500 m and no cumulonimbus
Becoming
from 04 at 12 UTC to 04 at 15 UTC
Wind 10 kt from the North
Temporary
from 04 at 16 UTC to 04 at 12 UTC
Visibility: 4000 m
Broken clouds at a height of 1400 ft
drizzle
The information on this site is subject to a disclaimer
Weather : Europe Africa North America South America Asia Australia-Oceania Others
Satellite images 10-day forecastsClimateMarine weather Cyclones Lightning AirportsFAQ Languages Contact Newsletter About